sensor_id;sensor_type;location;lat;lon;timestamp;pressure;altitude;pressure_sealevel;temperature;humidity
16100;BME280;8154;50.830;12.082;2022-11-15T00:01:09;99300.41;;;21.36;41.17
16100;BME280;8154;50.830;12.082;2022-11-15T00:03:53;99295.19;;;21.42;41.10
16100;BME280;8154;50.830;12.082;2022-11-15T00:06:37;99295.63;;;21.46;40.94
16100;BME280;8154;50.830;12.082;2022-11-15T00:09:21;99294.81;;;21.45;40.86
16100;BME280;8154;50.830;12.082;2022-11-15T00:12:05;99290.47;;;21.44;40.92
16100;BME280;8154;50.830;12.082;2022-11-15T00:14:50;99290.06;;;21.41;41.03
16100;BME280;8154;50.830;12.082;2022-11-15T00:17:34;99293.69;;;21.40;41.00
16100;BME280;8154;50.830;12.082;2022-11-15T00:20:17;99279.59;;;21.39;40.96
16100;BME280;8154;50.830;12.082;2022-11-15T00:23:03;99280.78;;;21.37;41.08
16100;BME280;8154;50.830;12.082;2022-11-15T00:25:55;99280.97;;;21.35;41.32
16100;BME280;8154;50.830;12.082;2022-11-15T00:28:41;99276.66;;;21.34;41.22
16100;BME280;8154;50.830;12.082;2022-11-15T00:31:25;99274.28;;;21.39;41.12
16100;BME280;8154;50.830;12.082;2022-11-15T00:34:10;99267.75;;;21.42;41.05
16100;BME280;8154;50.830;12.082;2022-11-15T00:36:54;99273.72;;;21.44;41.00
16100;BME280;8154;50.830;12.082;2022-11-15T00:39:39;99266.56;;;21.44;41.02
16100;BME280;8154;50.830;12.082;2022-11-15T00:42:23;99270.31;;;21.50;40.91
16100;BME280;8154;50.830;12.082;2022-11-15T00:45:07;99284.19;;;21.45;40.93
16100;BME280;8154;50.830;12.082;2022-11-15T00:47:52;99284.56;;;21.42;40.94
16100;BME280;8154;50.830;12.082;2022-11-15T00:50:36;99283.53;;;21.43;40.89
16100;BME280;8154;50.830;12.082;2022-11-15T00:53:20;99276.75;;;21.41;41.00
16100;BME280;8154;50.830;12.082;2022-11-15T00:56:05;99275.94;;;21.40;40.98
16100;BME280;8154;50.830;12.082;2022-11-15T00:58:49;99272.00;;;21.36;41.07
16100;BME280;8154;50.830;12.082;2022-11-15T01:01:34;99273.25;;;21.40;41.03
16100;BME280;8154;50.830;12.082;2022-11-15T01:04:18;99271.44;;;21.41;41.03
16100;BME280;8154;50.830;12.082;2022-11-15T01:07:02;99266.94;;;21.41;41.10
16100;BME280;8154;50.830;12.082;2022-11-15T01:09:46;99261.88;;;21.46;40.81
16100;BME280;8154;50.830;12.082;2022-11-15T01:12:31;99255.56;;;21.47;40.88
16100;BME280;8154;50.830;12.082;2022-11-15T01:15:16;99261.03;;;21.46;40.85
16100;BME280;8154;50.830;12.082;2022-11-15T01:18:00;99256.75;;;21.45;40.94
16100;BME280;8154;50.830;12.082;2022-11-15T01:20:44;99258.16;;;21.41;40.90
16100;BME280;8154;50.830;12.082;2022-11-15T01:23:29;99255.91;;;21.44;40.98
16100;BME280;8154;50.830;12.082;2022-11-15T01:26:14;99249.34;;;21.40;40.86
16100;BME280;8154;50.830;12.082;2022-11-15T01:28:59;99250.38;;;21.39;40.96
16100;BME280;8154;50.830;12.082;2022-11-15T01:31:43;99243.56;;;21.37;41.03
16100;BME280;8154;50.830;12.082;2022-11-15T01:34:27;99249.16;;;21.42;40.97
16100;BME280;8154;50.830;12.082;2022-11-15T01:37:11;99240.81;;;21.45;41.00
16100;BME280;8154;50.830;12.082;2022-11-15T01:39:55;99247.94;;;21.44;40.91
16100;BME280;8154;50.830;12.082;2022-11-15T01:42:39;99247.59;;;21.47;40.80
16100;BME280;8154;50.830;12.082;2022-11-15T01:45:24;99249.88;;;21.50;40.75
16100;BME280;8154;50.830;12.082;2022-11-15T01:48:09;99243.66;;;21.43;40.87
16100;BME280;8154;50.830;12.082;2022-11-15T01:50:54;99233.38;;;21.40;40.99
16100;BME280;8154;50.830;12.082;2022-11-15T01:53:40;99233.38;;;21.40;40.99
16100;BME280;8154;50.830;12.082;2022-11-15T01:56:29;99230.53;;;21.42;40.92
16100;BME280;8154;50.830;12.082;2022-11-15T01:59:16;99234.22;;;21.41;40.93
16100;BME280;8154;50.830;12.082;2022-11-15T02:02:00;99227.44;;;21.38;41.01
16100;BME280;8154;50.830;12.082;2022-11-15T02:04:47;99228.44;;;21.37;41.16
16100;BME280;8154;50.830;12.082;2022-11-15T02:07:34;99226.63;;;21.38;41.07
16100;BME280;8154;50.830;12.082;2022-11-15T02:10:21;99223.41;;;21.42;40.98
16100;BME280;8154;50.830;12.082;2022-11-15T02:13:05;99220.75;;;21.42;40.99
16100;BME280;8154;50.830;12.082;2022-11-15T02:18:55;99214.66;;;21.48;40.77
16100;BME280;8154;50.830;12.082;2022-11-15T02:22:14;99209.47;;;21.40;40.88
16100;BME280;8154;50.830;12.082;2022-11-15T02:25:55;99212.13;;;21.40;40.94
16100;BME280;8154;50.830;12.082;2022-11-15T02:31:14;99202.06;;;21.36;41.02
16100;BME280;8154;50.830;12.082;2022-11-15T02:34:11;99197.81;;;21.41;40.95
16100;BME280;8154;50.830;12.082;2022-11-15T02:37:16;99193.50;;;21.40;40.95
16100;BME280;8154;50.830;12.082;2022-11-15T02:43:25;99199.09;;;21.45;40.86
16100;BME280;8154;50.830;12.082;2022-11-15T02:46:32;99193.41;;;21.48;40.85
16100;BME280;8154;50.830;12.082;2022-11-15T02:49:37;99197.44;;;21.44;40.73
16100;BME280;8154;50.830;12.082;2022-11-15T02:52:23;99195.16;;;21.41;40.94
16100;BME280;8154;50.830;12.082;2022-11-15T02:55:28;99194.78;;;21.44;40.89
16100;BME280;8154;50.830;12.082;2022-11-15T02:59:07;99197.44;;;21.44;40.89
16100;BME280;8154;50.830;12.082;2022-11-15T03:05:01;99194.16;;;21.42;40.98
16100;BME280;8154;50.830;12.082;2022-11-15T03:08:01;99194.53;;;21.39;41.05
16100;BME280;8154;50.830;12.082;2022-11-15T03:13:57;99185.63;;;21.47;40.79
16100;BME280;8154;50.830;12.082;2022-11-15T03:17:28;99182.38;;;21.51;40.72
16100;BME280;8154;50.830;12.082;2022-11-15T03:20:06;99172.78;;;21.50;40.82
16100;BME280;8154;50.830;12.082;2022-11-15T03:22:53;99175.81;;;21.47;40.84
16100;BME280;8154;50.830;12.082;2022-11-15T03:25:48;99170.84;;;21.44;40.90
16100;BME280;8154;50.830;12.082;2022-11-15T03:28:56;99171.69;;;21.45;40.83
16100;BME280;8154;50.830;12.082;2022-11-15T03:31:44;99168.56;;;21.41;40.88
16100;BME280;8154;50.830;12.082;2022-11-15T03:34:44;99172.25;;;21.40;41.00
16100;BME280;8154;50.830;12.082;2022-11-15T03:37:37;99173.88;;;21.41;40.98
16100;BME280;8154;50.830;12.082;2022-11-15T03:40:47;99183.72;;;21.41;41.00
16100;BME280;8154;50.830;12.082;2022-11-15T03:43:44;99174.97;;;21.47;40.92
16100;BME280;8154;50.830;12.082;2022-11-15T03:46:36;99179.84;;;21.43;40.91
16100;BME280;8154;50.830;12.082;2022-11-15T03:49:27;99168.44;;;21.49;40.83
16100;BME280;8154;50.830;12.082;2022-11-15T03:52:17;99169.84;;;21.45;40.80
16100;BME280;8154;50.830;12.082;2022-11-15T03:55:04;99157.53;;;21.44;40.91
16100;BME280;8154;50.830;12.082;2022-11-15T03:57:56;99162.44;;;21.41;40.96
16100;BME280;8154;50.830;12.082;2022-11-15T04:00:41;99158.56;;;21.43;40.89
16100;BME280;8154;50.830;12.082;2022-11-15T04:03:26;99165.28;;;21.39;40.96
16100;BME280;8154;50.830;12.082;2022-11-15T04:06:10;99169.78;;;21.39;41.02
16100;BME280;8154;50.830;12.082;2022-11-15T04:08:54;99162.06;;;21.44;40.96
16100;BME280;8154;50.830;12.082;2022-11-15T04:11:38;99168.38;;;21.43;41.19
16100;BME280;8154;50.830;12.082;2022-11-15T04:14:22;99187.25;;;21.48;40.83
16100;BME280;8154;50.830;12.082;2022-11-15T04:17:06;99179.53;;;21.53;40.85
16100;BME280;8154;50.830;12.082;2022-11-15T04:19:51;99176.69;;;21.54;40.85
16100;BME280;8154;50.830;12.082;2022-11-15T04:22:58;99171.19;;;21.56;40.59
16100;BME280;8154;50.830;12.082;2022-11-15T04:26:05;99176.59;;;21.48;40.88
16100;BME280;8154;50.830;12.082;2022-11-15T04:28:49;99173.88;;;21.41;40.87
16100;BME280;8154;50.830;12.082;2022-11-15T04:31:53;99162.06;;;21.44;40.78
16100;BME280;8154;50.830;12.082;2022-11-15T04:34:37;99167.56;;;21.42;40.86
16100;BME280;8154;50.830;12.082;2022-11-15T04:37:23;99175.09;;;21.39;41.02
16100;BME280;8154;50.830;12.082;2022-11-15T04:40:07;99163.25;;;21.41;40.98
16100;BME280;8154;50.830;12.082;2022-11-15T04:42:52;99147.47;;;21.40;41.07
16100;BME280;8154;50.830;12.082;2022-11-15T04:45:36;99147.94;;;21.43;41.00
16100;BME280;8154;50.830;12.082;2022-11-15T04:48:20;99142.69;;;21.50;40.78
16100;BME280;8154;50.830;12.082;2022-11-15T04:51:04;99143.53;;;21.50;40.73
16100;BME280;8154;50.830;12.082;2022-11-15T04:53:49;99138.41;;;21.49;40.79
16100;BME280;8154;50.830;12.082;2022-11-15T04:56:33;99140.59;;;21.45;40.80
16100;BME280;8154;50.830;12.082;2022-11-15T04:59:17;99145.91;;;21.45;40.73
16100;BME280;8154;50.830;12.082;2022-11-15T05:02:02;99146.72;;;21.46;40.84
16100;BME280;8154;50.830;12.082;2022-11-15T05:04:46;99144.91;;;21.46;40.70
16100;BME280;8154;50.830;12.082;2022-11-15T05:07:31;99146.69;;;21.39;40.94
16100;BME280;8154;50.830;12.082;2022-11-15T05:10:15;99142.44;;;21.45;40.90
16100;BME280;8154;50.830;12.082;2022-11-15T05:12:59;99136.47;;;21.43;40.98
16100;BME280;8154;50.830;12.082;2022-11-15T05:15:44;99130.53;;;21.41;40.95
16100;BME280;8154;50.830;12.082;2022-11-15T05:18:29;99133.88;;;21.49;40.84
16100;BME280;8154;50.830;12.082;2022-11-15T05:21:14;99125.72;;;21.51;40.78
16100;BME280;8154;50.830;12.082;2022-11-15T05:23:59;99132.88;;;21.50;40.77
16100;BME280;8154;50.830;12.082;2022-11-15T05:26:43;99129.53;;;21.42;40.87
16100;BME280;8154;50.830;12.082;2022-11-15T05:29:27;99123.38;;;21.41;40.90
16100;BME280;8154;50.830;12.082;2022-11-15T05:32:12;99124.38;;;21.40;40.97
16100;BME280;8154;50.830;12.082;2022-11-15T05:34:56;99128.69;;;21.41;40.89
16100;BME280;8154;50.830;12.082;2022-11-15T05:37:40;99133.63;;;21.44;40.87
16100;BME280;8154;50.830;12.082;2022-11-15T05:40:25;99133.19;;;21.41;40.97
16100;BME280;8154;50.830;12.082;2022-11-15T05:43:10;99130.53;;;21.41;41.01
16100;BME280;8154;50.830;12.082;2022-11-15T05:45:54;99139.38;;;21.48;40.80
16100;BME280;8154;50.830;12.082;2022-11-15T05:48:42;99138.59;;;21.47;40.87
16100;BME280;8154;50.830;12.082;2022-11-15T05:51:28;99142.88;;;21.48;40.83
16100;BME280;8154;50.830;12.082;2022-11-15T05:54:14;99139.38;;;21.48;40.79
16100;BME280;8154;50.830;12.082;2022-11-15T05:56:59;99148.97;;;21.42;40.97
16100;BME280;8154;50.830;12.082;2022-11-15T05:59:44;99139.31;;;21.41;40.93
16100;BME280;8154;50.830;12.082;2022-11-15T06:02:29;99138.13;;;21.44;40.84
16100;BME280;8154;50.830;12.082;2022-11-15T06:05:13;99135.28;;;21.45;40.88
16100;BME280;8154;50.830;12.082;2022-11-15T06:07:58;99137.69;;;21.40;41.05
16100;BME280;8154;50.830;12.082;2022-11-15T06:10:42;99137.69;;;21.40;41.00
16100;BME280;8154;50.830;12.082;2022-11-15T06:13:26;99138.94;;;21.44;40.91
16100;BME280;8154;50.830;12.082;2022-11-15T06:16:10;99143.91;;;21.47;40.87
16100;BME280;8154;50.830;12.082;2022-11-15T06:18:55;99140.22;;;21.48;40.79
16100;BME280;8154;50.830;12.082;2022-11-15T06:21:39;99139.00;;;21.51;40.71
16100;BME280;8154;50.830;12.082;2022-11-15T06:24:23;99141.84;;;21.49;40.83
16100;BME280;8154;50.830;12.082;2022-11-15T06:27:07;99148.78;;;21.44;40.85
16100;BME280;8154;50.830;12.082;2022-11-15T06:29:51;99140.59;;;21.45;40.85
16100;BME280;8154;50.830;12.082;2022-11-15T06:32:36;99137.94;;;21.45;40.87
16100;BME280;8154;50.830;12.082;2022-11-15T06:35:20;99139.31;;;21.41;40.97
16100;BME280;8154;50.830;12.082;2022-11-15T06:38:06;99143.00;;;21.40;40.91
16100;BME280;8154;50.830;12.082;2022-11-15T06:40:50;99143.25;;;21.45;40.92
16100;BME280;8154;50.830;12.082;2022-11-15T06:43:35;99150.78;;;21.42;41.08
16100;BME280;8154;50.830;12.082;2022-11-15T06:46:19;99148.56;;;21.45;40.82
16100;BME280;8154;50.830;12.082;2022-11-15T06:49:03;99151.69;;;21.49;40.79
16100;BME280;8154;50.830;12.082;2022-11-15T06:51:48;99146.97;;;21.51;40.74
16100;BME280;8154;50.830;12.082;2022-11-15T06:54:32;99146.91;;;21.44;40.87
16100;BME280;8154;50.830;12.082;2022-11-15T06:57:16;99147.09;;;21.43;41.00
16100;BME280;8154;50.830;12.082;2022-11-15T07:00:01;99149.94;;;21.41;40.95
16100;BME280;8154;50.830;12.082;2022-11-15T07:02:45;99152.00;;;21.39;41.04
16100;BME280;8154;50.830;12.082;2022-11-15T07:05:30;99152.00;;;21.39;40.96
16100;BME280;8154;50.830;12.082;2022-11-15T07:08:14;99152.75;;;21.33;41.09
16100;BME280;8154;50.830;12.082;2022-11-15T07:11:00;99150.34;;;21.38;40.94
16100;BME280;8154;50.830;12.082;2022-11-15T07:13:45;99152.81;;;21.40;41.09
16100;BME280;8154;50.830;12.082;2022-11-15T07:16:29;99149.16;;;21.41;40.76
16100;BME280;8154;50.830;12.082;2022-11-15T07:19:14;99155.34;;;21.48;40.80
16100;BME280;8154;50.830;12.082;2022-11-15T07:21:58;99151.50;;;21.50;40.84
16100;BME280;8154;50.830;12.082;2022-11-15T07:24:42;99149.22;;;21.47;40.72
16100;BME280;8154;50.830;12.082;2022-11-15T07:27:26;99146.13;;;21.44;40.90
16100;BME280;8154;50.830;12.082;2022-11-15T07:30:11;99145.91;;;21.45;40.88
16100;BME280;8154;50.830;12.082;2022-11-15T07:32:59;99145.09;;;21.45;40.78
16100;BME280;8154;50.830;12.082;2022-11-15T07:35:44;99141.97;;;21.41;40.91
16100;BME280;8154;50.830;12.082;2022-11-15T07:38:32;99143.00;;;21.40;41.02
16100;BME280;8154;50.830;12.082;2022-11-15T07:41:16;99143.66;;;21.42;40.91
16100;BME280;8154;50.830;12.082;2022-11-15T07:44:01;99148.50;;;21.39;41.03
16100;BME280;8154;50.830;12.082;2022-11-15T07:46:45;99147.56;;;21.46;40.91
16100;BME280;8154;50.830;12.082;2022-11-15T07:49:30;99146.19;;;21.50;40.76
16100;BME280;8154;50.830;12.082;2022-11-15T07:52:15;99144.13;;;21.52;40.78
16100;BME280;8154;50.830;12.082;2022-11-15T07:54:59;99139.00;;;21.51;40.78
16100;BME280;8154;50.830;12.082;2022-11-15T07:57:43;99137.56;;;21.48;40.93
16100;BME280;8154;50.830;12.082;2022-11-15T08:00:28;99143.91;;;21.47;40.84
16100;BME280;8154;50.830;12.082;2022-11-15T08:03:14;99143.44;;;21.44;40.96
16100;BME280;8154;50.830;12.082;2022-11-15T08:05:59;99137.03;;;21.38;40.82
16100;BME280;8154;50.830;12.082;2022-11-15T08:08:44;99137.22;;;21.37;40.99
16100;BME280;8154;50.830;12.082;2022-11-15T08:11:28;99135.66;;;21.42;40.99
16100;BME280;8154;50.830;12.082;2022-11-15T08:14:12;99128.44;;;21.36;41.05
16100;BME280;8154;50.830;12.082;2022-11-15T08:16:56;99129.78;;;21.47;40.94
16100;BME280;8154;50.830;12.082;2022-11-15T08:19:41;99125.09;;;21.49;40.84
16100;BME280;8154;50.830;12.082;2022-11-15T08:22:25;99131.22;;;21.49;40.97
16100;BME280;8154;50.830;12.082;2022-11-15T08:25:09;99121.59;;;21.48;40.88
16100;BME280;8154;50.830;12.082;2022-11-15T08:27:55;99122.25;;;21.50;40.75
16100;BME280;8154;50.830;12.082;2022-11-15T08:30:42;99115.84;;;21.45;40.76
16100;BME280;8154;50.830;12.082;2022-11-15T08:33:27;99116.69;;;21.45;40.80
16100;BME280;8154;50.830;12.082;2022-11-15T08:36:16;99110.53;;;21.45;40.85
16100;BME280;8154;50.830;12.082;2022-11-15T08:39:00;99107.78;;;21.38;41.00
16100;BME280;8154;50.830;12.082;2022-11-15T08:41:44;99099.88;;;21.45;40.92
16100;BME280;8154;50.830;12.082;2022-11-15T08:44:29;99099.44;;;21.41;40.99
16100;BME280;8154;50.830;12.082;2022-11-15T08:47:13;99088.22;;;21.46;40.93
16100;BME280;8154;50.830;12.082;2022-11-15T08:49:58;99088.09;;;21.54;40.73
16100;BME280;8154;50.830;12.082;2022-11-15T08:52:42;99078.94;;;21.56;40.62
16100;BME280;8154;50.830;12.082;2022-11-15T08:55:26;99083.44;;;21.56;40.60
16100;BME280;8154;50.830;12.082;2022-11-15T08:58:10;99078.09;;;21.56;40.64
16100;BME280;8154;50.830;12.082;2022-11-15T09:00:54;99081.91;;;21.47;40.80
16100;BME280;8154;50.830;12.082;2022-11-15T09:03:40;99082.91;;;21.46;40.86
16100;BME280;8154;50.830;12.082;2022-11-15T09:06:27;99082.13;;;21.45;40.79
16100;BME280;8154;50.830;12.082;2022-11-15T09:09:11;99076.53;;;21.40;40.97
16100;BME280;8154;50.830;12.082;2022-11-15T09:11:57;99073.50;;;21.43;40.92
16100;BME280;8154;50.830;12.082;2022-11-15T09:14:41;99069.81;;;21.44;40.94
16100;BME280;8154;50.830;12.082;2022-11-15T09:17:25;99081.66;;;21.42;40.99
16100;BME280;8154;50.830;12.082;2022-11-15T09:20:10;99076.59;;;21.47;40.90
16100;BME280;8154;50.830;12.082;2022-11-15T09:22:54;99071.97;;;21.55;40.68
16100;BME280;8154;50.830;12.082;2022-11-15T09:25:39;99069.16;;;21.63;40.40
16100;BME280;8154;50.830;12.082;2022-11-15T09:28:23;99061.00;;;21.65;40.50
16100;BME280;8154;50.830;12.082;2022-11-15T09:31:07;99065.13;;;21.67;40.48
16100;BME280;8154;50.830;12.082;2022-11-15T09:33:52;99061.88;;;21.72;40.47
16100;BME280;8154;50.830;12.082;2022-11-15T09:36:36;99059.16;;;21.65;40.56
16100;BME280;8154;50.830;12.082;2022-11-15T09:39:20;99065.47;;;21.64;40.65
16100;BME280;8154;50.830;12.082;2022-11-15T09:42:20;99062.66;;;21.66;40.60
16100;BME280;8154;50.830;12.082;2022-11-15T09:50:51;99051.06;;;21.73;40.53
16100;BME280;8154;50.830;12.082;2022-11-15T09:53:58;99043.50;;;21.77;40.60
16100;BME280;8154;50.830;12.082;2022-11-15T09:56:45;99044.34;;;21.77;40.42
16100;BME280;8154;50.830;12.082;2022-11-15T10:05:46;99032.88;;;21.77;40.62
16100;BME280;8154;50.830;12.082;2022-11-15T10:08:35;99042.72;;;21.76;40.61
16100;BME280;8154;50.830;12.082;2022-11-15T10:11:25;99030.03;;;21.78;40.60
16100;BME280;8154;50.830;12.082;2022-11-15T10:14:14;99037.81;;;21.80;40.58
16100;BME280;8154;50.830;12.082;2022-11-15T10:17:24;99028.00;;;21.80;40.53
16100;BME280;8154;50.830;12.082;2022-11-15T10:20:20;99030.91;;;21.85;40.40
16100;BME280;8154;50.830;12.082;2022-11-15T10:23:12;99021.47;;;21.83;40.57
16100;BME280;8154;50.830;12.082;2022-11-15T10:25:59;99004.50;;;21.84;40.32
16100;BME280;8154;50.830;12.082;2022-11-15T10:28:43;98995.88;;;21.82;40.48
16100;BME280;8154;50.830;12.082;2022-11-15T10:31:28;98998.97;;;21.85;40.39
16100;BME280;8154;50.830;12.082;2022-11-15T10:34:19;98993.41;;;21.80;40.72
16100;BME280;8154;50.830;12.082;2022-11-15T10:37:03;98992.81;;;21.85;40.53
16100;BME280;8154;50.830;12.082;2022-11-15T10:40:06;98986.50;;;21.86;40.47
16100;BME280;8154;50.830;12.082;2022-11-15T10:43:18;98983.41;;;21.82;40.57
16100;BME280;8154;50.830;12.082;2022-11-15T10:46:19;98980.16;;;21.87;40.48
16100;BME280;8154;50.830;12.082;2022-11-15T10:49:27;98976.66;;;21.86;40.50
16100;BME280;8154;50.830;12.082;2022-11-15T10:55:05;98980.59;;;21.90;40.34
16100;BME280;8154;50.830;12.082;2022-11-15T10:57:58;98974.84;;;21.87;40.31
16100;BME280;8154;50.830;12.082;2022-11-15T11:00:45;98978.72;;;21.84;40.54
16100;BME280;8154;50.830;12.082;2022-11-15T11:03:40;98969.28;;;21.82;40.59
16100;BME280;8154;50.830;12.082;2022-11-15T11:06:25;98967.00;;;21.79;40.43
16100;BME280;8154;50.830;12.082;2022-11-15T11:09:29;98965.56;;;21.76;40.66
16100;BME280;8154;50.830;12.082;2022-11-15T11:12:29;98958.75;;;21.74;40.74
16100;BME280;8154;50.830;12.082;2022-11-15T11:15:16;98960.63;;;21.73;40.71
16100;BME280;8154;50.830;12.082;2022-11-15T11:18:07;98955.50;;;21.72;40.72
16100;BME280;8154;50.830;12.082;2022-11-15T11:21:08;98951.88;;;21.79;40.57
16100;BME280;8154;50.830;12.082;2022-11-15T11:27:18;98944.28;;;21.76;40.83
16100;BME280;8154;50.830;12.082;2022-11-15T11:33:24;98932.72;;;21.90;40.47
16100;BME280;8154;50.830;12.082;2022-11-15T11:51:39;98910.31;;;21.78;40.62
16100;BME280;8154;50.830;12.082;2022-11-15T11:54:31;98914.00;;;21.77;40.69
16100;BME280;8154;50.830;12.082;2022-11-15T11:57:28;98900.91;;;21.76;40.71
16100;BME280;8154;50.830;12.082;2022-11-15T12:00:21;98899.66;;;21.72;40.72
16100;BME280;8154;50.830;12.082;2022-11-15T12:03:19;98896.75;;;21.67;40.81
16100;BME280;8154;50.830;12.082;2022-11-15T12:06:29;98896.94;;;21.65;40.82
16100;BME280;8154;50.830;12.082;2022-11-15T12:15:19;98885.13;;;21.74;40.74
16100;BME280;8154;50.830;12.082;2022-11-15T12:18:07;98878.19;;;21.80;40.61
16100;BME280;8154;50.830;12.082;2022-11-15T12:21:02;98876.81;;;21.84;40.51
16100;BME280;8154;50.830;12.082;2022-11-15T12:23:58;98864.34;;;21.84;40.51
16100;BME280;8154;50.830;12.082;2022-11-15T12:26:57;98870.47;;;21.85;40.46
16100;BME280;8154;50.830;12.082;2022-11-15T12:29:48;98871.88;;;21.81;40.52
16100;BME280;8154;50.830;12.082;2022-11-15T12:32:37;98866.75;;;21.79;40.72
16100;BME280;8154;50.830;12.082;2022-11-15T12:47:27;98850.06;;;21.64;40.93
16100;BME280;8154;50.830;12.082;2022-11-15T12:50:12;98851.94;;;21.64;40.84
16100;BME280;8154;50.830;12.082;2022-11-15T12:53:31;98846.63;;;21.64;40.88
16100;BME280;8154;50.830;12.082;2022-11-15T12:59:00;98847.81;;;21.61;40.84
16100;BME280;8154;50.830;12.082;2022-11-15T13:04:30;98845.00;;;21.69;40.87
16100;BME280;8154;50.830;12.082;2022-11-15T13:10:34;98841.78;;;21.80;40.63
16100;BME280;8154;50.830;12.082;2022-11-15T13:13:44;98835.28;;;21.83;40.48
16100;BME280;8154;50.830;12.082;2022-11-15T13:16:29;98832.00;;;21.81;40.61
16100;BME280;8154;50.830;12.082;2022-11-15T13:19:14;98830.53;;;21.78;40.51
16100;BME280;8154;50.830;12.082;2022-11-15T13:21:58;98827.00;;;21.71;40.73
16100;BME280;8154;50.830;12.082;2022-11-15T13:25:02;98826.56;;;21.68;40.80
16100;BME280;8154;50.830;12.082;2022-11-15T13:27:48;98824.13;;;21.66;40.79
16100;BME280;8154;50.830;12.082;2022-11-15T13:30:34;98818.16;;;21.64;40.93
16100;BME280;8154;50.830;12.082;2022-11-15T13:33:35;98821.22;;;21.61;40.88
16100;BME280;8154;50.830;12.082;2022-11-15T13:36:22;98811.63;;;21.60;40.99
16100;BME280;8154;50.830;12.082;2022-11-15T13:39:23;98814.47;;;21.59;40.76
16100;BME280;8154;50.830;12.082;2022-11-15T13:42:15;98815.09;;;21.61;40.96
16100;BME280;8154;50.830;12.082;2022-11-15T13:45:01;98813.25;;;21.61;40.90
16100;BME280;8154;50.830;12.082;2022-11-15T13:47:55;98808.75;;;21.62;40.97
16100;BME280;8154;50.830;12.082;2022-11-15T13:50:40;98819.00;;;21.65;40.87
16100;BME280;8154;50.830;12.082;2022-11-15T13:53:24;98813.06;;;21.69;40.78
16100;BME280;8154;50.830;12.082;2022-11-15T13:56:09;98807.00;;;21.75;40.70
16100;BME280;8154;50.830;12.082;2022-11-15T13:58:54;98811.91;;;21.78;40.59
16100;BME280;8154;50.830;12.082;2022-11-15T14:01:41;98799.38;;;21.72;40.65
16100;BME280;8154;50.830;12.082;2022-11-15T14:04:27;98801.00;;;21.67;40.77
16100;BME280;8154;50.830;12.082;2022-11-15T14:07:19;98791.56;;;21.64;40.77
16100;BME280;8154;50.830;12.082;2022-11-15T14:10:30;98797.28;;;21.61;40.90
16100;BME280;8154;50.830;12.082;2022-11-15T14:13:29;98792.56;;;21.57;41.09
16100;BME280;8154;50.830;12.082;2022-11-15T14:16:19;98783.78;;;21.56;41.04
16100;BME280;8154;50.830;12.082;2022-11-15T14:19:05;98785.81;;;21.54;41.05
16100;BME280;8154;50.830;12.082;2022-11-15T14:22:11;98782.13;;;21.55;41.01
16100;BME280;8154;50.830;12.082;2022-11-15T14:25:13;98779.88;;;21.52;41.11
16100;BME280;8154;50.830;12.082;2022-11-15T14:31:00;98778.44;;;21.50;41.11
16100;BME280;8154;50.830;12.082;2022-11-15T14:33:44;98767.63;;;21.51;41.00
16100;BME280;8154;50.830;12.082;2022-11-15T14:36:28;98765.16;;;21.50;41.17
16100;BME280;8154;50.830;12.082;2022-11-15T14:39:12;98765.59;;;21.53;41.07
16100;BME280;8154;50.830;12.082;2022-11-15T14:41:56;98765.59;;;21.53;41.01
16100;BME280;8154;50.830;12.082;2022-11-15T14:44:41;98756.19;;;21.57;41.03
16100;BME280;8154;50.830;12.082;2022-11-15T14:47:25;98746.97;;;21.53;41.06
16100;BME280;8154;50.830;12.082;2022-11-15T14:50:17;98747.38;;;21.50;41.06
16100;BME280;8154;50.830;12.082;2022-11-15T14:53:03;98745.91;;;21.48;41.06
16100;BME280;8154;50.830;12.082;2022-11-15T14:55:47;98741.63;;;21.47;41.10
16100;BME280;8154;50.830;12.082;2022-11-15T14:58:31;98735.88;;;21.43;41.22
16100;BME280;8154;50.830;12.082;2022-11-15T15:01:23;98728.34;;;21.47;41.18
16100;BME280;8154;50.830;12.082;2022-11-15T15:04:10;98728.38;;;21.53;40.53
16100;BME280;8154;50.830;12.082;2022-11-15T15:06:54;98721.81;;;21.56;39.98
16100;BME280;8154;50.830;12.082;2022-11-15T15:09:39;98722.84;;;21.55;39.52
16100;BME280;8154;50.830;12.082;2022-11-15T15:12:23;98721.34;;;21.46;39.70
16100;BME280;8154;50.830;12.082;2022-11-15T15:15:18;98723.41;;;21.44;39.91
16100;BME280;8154;50.830;12.082;2022-11-15T15:18:04;98717.47;;;21.42;39.84
16100;BME280;8154;50.830;12.082;2022-11-15T15:20:56;98717.28;;;21.43;39.97
16100;BME280;8154;50.830;12.082;2022-11-15T15:23:43;98715.03;;;21.47;39.93
16100;BME280;8154;50.830;12.082;2022-11-15T15:26:27;98719.75;;;21.51;39.83
16100;BME280;8154;50.830;12.082;2022-11-15T15:29:12;98713.41;;;21.52;39.83
16100;BME280;8154;50.830;12.082;2022-11-15T15:31:56;98717.31;;;21.50;39.94
16100;BME280;8154;50.830;12.082;2022-11-15T15:34:40;98715.66;;;21.49;39.95
16100;BME280;8154;50.830;12.082;2022-11-15T15:37:25;98716.47;;;21.49;40.02
16100;BME280;8154;50.830;12.082;2022-11-15T15:40:21;98719.75;;;21.51;40.17
16100;BME280;8154;50.830;12.082;2022-11-15T15:43:06;98722.00;;;21.54;40.02
16100;BME280;8154;50.830;12.082;2022-11-15T15:45:53;98716.50;;;21.56;40.02
16100;BME280;8154;50.830;12.082;2022-11-15T15:48:37;98722.63;;;21.56;40.05
16100;BME280;8154;50.830;12.082;2022-11-15T15:51:23;98715.06;;;21.53;40.06
16100;BME280;8154;50.830;12.082;2022-11-15T15:54:07;98721.38;;;21.52;40.12
16100;BME280;8154;50.830;12.082;2022-11-15T15:56:51;98715.66;;;21.49;40.23
16100;BME280;8154;50.830;12.082;2022-11-15T15:59:35;98720.59;;;21.52;40.09
16100;BME280;8154;50.830;12.082;2022-11-15T16:02:19;98723.25;;;21.58;40.13
16100;BME280;8154;50.830;12.082;2022-11-15T16:05:04;98728.97;;;21.55;40.01
16100;BME280;8154;50.830;12.082;2022-11-15T16:07:48;98718.72;;;21.52;40.08
16100;BME280;8154;50.830;12.082;2022-11-15T16:10:33;98721.78;;;21.49;40.24
16100;BME280;8154;50.830;12.082;2022-11-15T16:13:21;98720.16;;;21.48;40.30